62CO weather

The Farm Airport
Keenesburg, Colorado, United States

Public forecast

Using degrees Fahrenheit for public forecast. Weather courtesy of forecast.io.

METAR (pilot weather report)

Closest report is Denver International Airport, 18.2 nm (33.7 km) SW. Retrieved 2019/08/25 22:53 UTC (25 minutes ago):

KDEN 252253Z 32016G24KT 10SM SCT130 34/00 A2989 RMK AO2 PK WND 28029/2206 SLP027 T03440000 $

TAF (pilot weather forecast)

Closest forecast is Denver International Airport, 18.2 nm (33.7 km) SW. Retrieved 2019/08/25 18:36 UTC (5 hours ago):

TAF KDEN 251734Z 2518/2624 30012G22KT P6SM FEW120 SCT220 FM260100 27010KT P6SM FEW120 SCT220 FM260300 22012KT P6SM SKC FM260900 32012KT P6SM SKC FM261100 01012G20KT P6SM SCT020 FM261500 03010KT P6SM SCT030 FM261800 05012KT P6SM FEW040